Time;durP1;ratioP1;P1;durP2;ratioP2;P2;SDS_P1;SDS_P2;PMS_P1;PMS_P2;Temp;Humidity;BMP_temperature;BMP_pressure;BME280_temperature;BME280_humidity;BME280_pressure;Samples;Min_cycle;Max_cycle;Signal;HPM_P1;HPM_P2
2023/03/19 00:01:18;;;;;;;3.90;1.73;;;;;;;11.07;65.77;98365.34;4946802;28;20239;-57
2023/03/19 00:03:45;;;;;;;4.80;1.70;;;;;;;10.98;67.93;98362.88;4961692;28;20260;-57
2023/03/19 00:06:12;;;;;;;3.47;1.50;;;;;;;10.98;65.86;98368.09;4968640;28;20551;-57
2023/03/19 00:08:38;;;;;;;2.87;1.43;;;;;;;11.00;65.91;98371.38;4956422;28;20244;-57
2023/03/19 00:11:11;;;;;;;3.53;1.30;;;;;;;11.08;63.06;98371.41;4967330;28;20298;-55
2023/03/19 00:13:37;;;;;;;2.60;1.00;;;;;;;11.16;60.81;98381.03;4964113;28;20258;-57
2023/03/19 00:16:05;;;;;;;3.60;1.40;;;;;;;11.50;56.77;98377.47;4969647;28;20707;-57
2023/03/19 00:18:32;;;;;;;2.50;1.30;;;;;;;11.48;60.14;98395.94;4965672;28;20227;-58
2023/03/19 00:21:00;;;;;;;4.07;2.30;;;;;;;11.48;61.02;98398.53;4972799;28;21186;-55
2023/03/19 00:23:26;;;;;;;4.90;2.40;;;;;;;11.46;60.77;98404.91;4969237;28;20230;-57
2023/03/19 00:25:54;;;;;;;3.83;2.20;;;;;;;11.34;61.27;98407.00;4968283;28;20238;-57
2023/03/19 00:28:22;;;;;;;3.87;2.40;;;;;;;11.31;61.28;98410.78;4971436;28;20231;-55
2023/03/19 00:30:49;;;;;;;4.27;2.43;;;;;;;11.25;62.27;98414.03;4969151;28;20287;-57
2023/03/19 00:33:15;;;;;;;5.97;3.17;;;;;;;11.19;62.17;98415.47;4952287;28;20330;-58
2023/03/19 00:35:42;;;;;;;6.70;2.77;;;;;;;11.06;63.95;98421.16;4952793;28;20261;-55
2023/03/19 00:38:08;;;;;;;4.27;2.50;;;;;;;10.90;64.57;98418.50;4970182;28;20224;-57
2023/03/19 00:40:36;;;;;;;5.33;3.13;;;;;;;10.84;65.19;98425.19;4966376;28;20678;-56
2023/03/19 00:43:02;;;;;;;5.13;3.00;;;;;;;10.78;65.32;98420.59;4950805;28;20236;-55
2023/03/19 00:45:30;;;;;;;6.27;2.50;;;;;;;10.67;66.77;98419.06;4950401;28;20345;-57
2023/03/19 00:47:57;;;;;;;5.27;2.50;;;;;;;10.59;68.11;98424.28;4951240;28;20243;-57
2023/03/19 00:50:25;;;;;;;5.33;2.40;;;;;;;10.53;67.57;98428.31;4968472;28;20239;-58
2023/03/19 00:52:53;;;;;;;5.27;2.63;;;;;;;10.58;65.99;98433.06;4951157;28;20292;-57
2023/03/19 00:55:19;;;;;;;5.70;2.40;;;;;;;10.49;65.42;98432.19;4968175;28;20226;-58
2023/03/19 00:57:46;;;;;;;4.73;2.13;;;;;;;10.41;66.22;98426.94;4968542;28;20275;-58
2023/03/19 01:00:13;;;;;;;3.23;1.83;;;;;;;10.54;64.62;98418.69;4971862;28;20230;-58
2023/03/19 01:02:41;;;;;;;3.87;1.77;;;;;;;10.52;61.07;98426.66;4965420;28;20238;-58
2023/03/19 01:05:08;;;;;;;5.67;1.70;;;;;;;10.99;57.68;98435.84;4949470;28;20742;-58
2023/03/19 01:07:35;;;;;;;5.00;1.90;;;;;;;11.13;56.59;98444.03;4947780;28;20253;-58
2023/03/19 01:10:02;;;;;;;4.47;1.60;;;;;;;11.35;55.09;98433.00;4951721;28;20240;-58
2023/03/19 01:12:29;;;;;;;3.00;2.00;;;;;;;11.62;52.13;98438.09;4950053;28;20227;-58
2023/03/19 01:14:55;;;;;;;3.67;1.73;;;;;;;11.76;52.17;98449.69;4949973;28;20584;-58
2023/03/19 01:17:22;;;;;;;5.20;1.90;;;;;;;11.80;52.92;98451.00;4968295;28;20318;-58
2023/03/19 01:19:50;;;;;;;5.50;1.80;;;;;;;11.81;52.71;98458.69;4950592;28;20246;-58
2023/03/19 01:22:17;;;;;;;6.07;1.67;;;;;;;11.75;52.26;98456.72;4952447;28;20242;-57
2023/03/19 01:24:49;;;;;;;3.57;1.90;;;;;;;11.79;53.05;98459.81;4950190;28;20294;-58
2023/03/19 01:27:16;;;;;;;5.07;2.00;;;;;;;11.73;52.46;98450.84;4951132;28;20633;-58
2023/03/19 01:29:43;;;;;;;3.63;2.10;;;;;;;11.69;53.60;98449.53;4947653;28;20241;-58
2023/03/19 01:32:16;;;;;;;3.63;1.80;;;;;;;11.70;54.64;98439.88;4950354;28;20234;-58
2023/03/19 01:35:04;;;;;;;7.43;1.90;;;;;;;11.71;54.03;98436.28;4959255;28;20233;-57
2023/03/19 01:37:32;;;;;;;3.43;1.73;;;;;;;11.76;53.53;98434.00;4944629;28;20245;-58
2023/03/19 01:39:59;;;;;;;4.67;2.17;;;;;;;11.76;55.08;98432.22;4952420;28;20373;-57
2023/03/19 01:42:26;;;;;;;5.50;1.93;;;;;;;11.85;54.98;98433.03;4942528;28;20298;-58
2023/03/19 01:45:32;;;;;;;3.07;1.73;;;;;;;11.88;56.37;98427.47;4950505;28;20229;-58
2023/03/19 01:48:25;;;;;;;4.77;1.80;;;;;;;11.85;59.20;98432.22;4960430;28;20402;-58
2023/03/19 01:51:03;;;;;;;4.10;1.70;;;;;;;11.74;60.31;98426.34;4944994;28;20417;-58
2023/03/19 01:53:51;;;;;;;3.47;1.50;;;;;;;11.64;61.65;98425.69;4954107;28;20315;-58
2023/03/19 01:56:46;;;;;;;5.70;1.70;;;;;;;11.53;63.87;98429.44;4924431;28;20241;-56
2023/03/19 01:59:22;;;;;;;4.67;1.93;;;;;;;11.39;64.77;98423.03;4947668;28;20232;-56
2023/03/19 02:02:10;;;;;;;3.93;1.50;;;;;;;11.32;64.71;98420.25;4945935;28;20315;-57
2023/03/19 02:04:39;;;;;;;4.83;1.20;;;;;;;11.34;62.57;98418.28;4945954;28;20280;-56
2023/03/19 02:07:09;;;;;;;4.73;1.30;;;;;;;11.39;62.96;98417.81;4951478;28;20729;-56
2023/03/19 02:09:37;;;;;;;1.87;1.20;;;;;;;11.42;61.16;98414.88;4946690;28;20626;-57
2023/03/19 02:12:05;;;;;;;3.37;1.50;;;;;;;11.45;61.37;98414.53;4951763;28;20248;-58
2023/03/19 02:14:31;;;;;;;1.40;1.00;;;;;;;11.46;61.94;98410.94;4961974;28;20235;-55
2023/03/19 02:16:58;;;;;;;2.93;1.00;;;;;;;11.49;62.19;98404.59;4972655;28;20582;-56
2023/03/19 02:19:31;;;;;;;2.73;0.97;;;;;;;11.55;61.35;98406.56;4964938;28;20244;-57
2023/03/19 02:22:00;;;;;;;3.17;1.27;;;;;;;11.50;62.99;98408.84;4949785;28;20718;-56
2023/03/19 02:24:33;;;;;;;6.20;1.40;;;;;;;11.37;64.94;98415.38;4964127;28;20235;-58
2023/03/19 02:27:08;;;;;;;3.70;1.47;;;;;;;11.27;64.89;98404.25;4946771;28;20236;-57
2023/03/19 02:29:35;;;;;;;2.53;1.70;;;;;;;11.19;65.46;98407.63;4933683;28;20337;-57
2023/03/19 02:32:02;;;;;;;3.03;1.40;;;;;;;11.13;66.02;98407.47;4953951;28;20232;-58
2023/03/19 02:34:38;;;;;;;4.50;1.20;;;;;;;11.03;68.03;98407.63;4964984;28;20306;-58
2023/03/19 02:37:10;;;;;;;3.10;1.67;;;;;;;10.95;68.11;98411.00;4969024;28;20244;-58
2023/03/19 02:39:43;;;;;;;3.07;1.23;;;;;;;10.87;67.83;98406.59;4944754;28;20437;-58
2023/03/19 02:42:14;;;;;;;5.80;1.93;;;;;;;10.85;68.23;98411.16;4929370;28;20240;-57
2023/03/19 02:44:41;;;;;;;2.43;1.23;;;;;;;10.77;69.17;98409.31;4928649;28;20240;-57
2023/03/19 02:47:08;;;;;;;3.03;1.37;;;;;;;10.78;67.88;98410.94;4956121;28;20750;-57
2023/03/19 02:49:34;;;;;;;2.57;0.90;;;;;;;10.83;66.56;98412.28;4940612;28;20230;-57
2023/03/19 02:52:01;;;;;;;3.17;0.90;;;;;;;10.84;65.99;98408.69;4944446;28;20685;-57
2023/03/19 02:54:28;;;;;;;2.93;0.90;;;;;;;10.89;65.75;98412.47;4963590;28;20246;-57
2023/03/19 02:56:55;;;;;;;3.77;1.00;;;;;;;10.92;63.80;98416.53;4963068;28;20235;-58
2023/03/19 02:59:22;;;;;;;3.27;1.03;;;;;;;10.99;63.60;98414.94;4953752;28;20232;-56
2023/03/19 03:01:49;;;;;;;4.87;1.30;;;;;;;10.96;64.44;98417.88;4956131;28;20239;-57
2023/03/19 03:04:16;;;;;;;1.97;1.13;;;;;;;10.89;65.96;98422.09;4944408;28;20326;-57
2023/03/19 03:06:44;;;;;;;2.80;1.10;;;;;;;10.77;66.88;98416.34;4958544;28;20242;-57
2023/03/19 03:09:14;;;;;;;2.03;1.10;;;;;;;10.73;66.66;98417.63;4950932;28;20231;-57
2023/03/19 03:11:43;;;;;;;3.67;1.40;;;;;;;10.65;67.41;98417.59;4963579;28;20239;-57
2023/03/19 03:14:09;;;;;;;3.23;1.23;;;;;;;10.62;67.56;98419.53;4968039;28;20868;-57
2023/03/19 03:16:38;;;;;;;2.97;1.23;;;;;;;10.66;67.60;98421.84;4955244;28;20275;-57
2023/03/19 03:19:04;;;;;;;2.87;0.87;;;;;;;10.67;65.72;98424.28;4937233;28;20236;-57
2023/03/19 03:21:31;;;;;;;2.97;1.20;;;;;;;10.66;66.74;98411.41;4948305;28;20320;-57
2023/03/19 03:23:58;;;;;;;5.50;1.40;;;;;;;10.59;67.55;98426.88;4944566;28;20239;-57
2023/03/19 03:26:24;;;;;;;2.40;1.20;;;;;;;10.54;68.09;98419.50;4954037;28;20295;-57
2023/03/19 03:28:51;;;;;;;2.17;1.00;;;;;;;10.56;67.88;98435.03;4946451;28;20238;-57
2023/03/19 03:31:18;;;;;;;3.37;1.30;;;;;;;10.47;67.63;98432.38;4966181;28;20235;-57
2023/03/19 03:33:46;;;;;;;4.10;1.23;;;;;;;10.41;68.08;98435.59;4949788;28;20256;-56
2023/03/19 03:36:13;;;;;;;2.13;1.00;;;;;;;10.43;66.09;98428.44;4969613;28;20250;-57
2023/03/19 03:38:39;;;;;;;1.20;0.80;;;;;;;10.47;66.39;98432.38;4956501;28;20254;-56
2023/03/19 03:41:06;;;;;;;2.60;1.00;;;;;;;10.57;63.75;98437.47;4957204;28;20586;-57
2023/03/19 03:43:33;;;;;;;3.13;1.10;;;;;;;10.69;62.41;98430.16;4945406;28;20300;-57
2023/03/19 03:46:00;;;;;;;1.93;1.10;;;;;;;10.75;62.55;98437.38;4947824;28;20285;-58
2023/03/19 03:48:27;;;;;;;3.27;0.90;;;;;;;10.92;61.33;98429.59;4963394;28;20246;-58
2023/03/19 03:50:55;;;;;;;2.17;1.53;;;;;;;11.02;61.40;98432.09;4947841;28;20702;-58
2023/03/19 03:53:26;;;;;;;3.63;1.50;;;;;;;11.01;63.33;98439.09;4949740;28;21110;-58
2023/03/19 03:55:52;;;;;;;1.80;1.13;;;;;;;10.99;62.46;98428.00;4952902;28;20233;-57
2023/03/19 03:58:22;;;;;;;3.27;1.50;;;;;;;11.02;60.29;98445.16;4967775;28;20242;-55
2023/03/19 04:00:50;;;;;;;2.23;1.40;;;;;;;11.06;60.12;98443.88;4964879;28;20246;-57
2023/03/19 04:03:17;;;;;;;4.07;1.50;;;;;;;11.08;59.42;98447.94;4945818;28;20227;-58
2023/03/19 04:05:44;;;;;;;2.87;1.30;;;;;;;11.15;59.84;98448.13;4943242;28;20319;-58
2023/03/19 04:08:13;;;;;;;3.57;1.40;;;;;;;11.30;57.60;98455.34;4944590;28;20322;-57
2023/03/19 04:10:41;;;;;;;5.93;1.53;;;;;;;11.27;58.66;98459.09;4946032;28;20323;-57
2023/03/19 04:13:07;;;;;;;2.70;1.07;;;;;;;11.29;59.33;98456.31;4949540;28;20329;-56
2023/03/19 04:15:34;;;;;;;4.43;1.30;;;;;;;11.34;57.77;98454.06;4965068;28;20606;-56
2023/03/19 04:18:02;;;;;;;3.20;1.13;;;;;;;11.31;57.91;98449.97;4952538;28;20313;-58
2023/03/19 04:20:28;;;;;;;1.60;1.07;;;;;;;11.40;57.19;98450.00;4947401;28;20236;-58
2023/03/19 04:22:55;;;;;;;2.70;1.17;;;;;;;11.37;57.89;98462.41;4954006;28;20260;-57
2023/03/19 04:25:23;;;;;;;2.03;1.10;;;;;;;11.35;59.01;98459.13;4951508;28;20767;-57
2023/03/19 04:27:52;;;;;;;3.60;1.40;;;;;;;11.31;58.81;98459.59;4966544;28;20231;-57
2023/03/19 04:33:09;;;;;;;2.17;1.20;;;;;;;11.20;60.68;98471.97;4947143;23;20261;-56
2023/03/19 04:35:36;;;;;;;4.17;1.30;;;;;;;11.15;60.76;98463.78;4933151;29;20232;-57
2023/03/19 04:38:04;;;;;;;3.00;1.07;;;;;;;11.12;60.60;98471.16;4952507;28;20228;-55
2023/03/19 04:40:32;;;;;;;4.10;1.30;;;;;;;11.05;61.04;98466.53;4932410;28;20227;-56
2023/03/19 04:42:59;;;;;;;2.27;1.13;;;;;;;11.02;60.32;98466.06;4930905;29;20681;-56
2023/03/19 04:45:34;;;;;;;2.53;1.20;;;;;;;11.02;60.93;98473.91;4914766;29;20823;-57
2023/03/19 04:48:01;;;;;;;6.13;1.57;;;;;;;11.11;60.18;98472.94;4930847;29;20232;-56
2023/03/19 04:50:29;;;;;;;3.07;1.33;;;;;;;11.20;57.94;98471.97;4930320;29;20800;-58
2023/03/19 04:52:55;;;;;;;3.07;1.40;;;;;;;11.35;58.31;98481.81;4916992;29;20278;-55
2023/03/19 04:55:24;;;;;;;3.57;1.53;;;;;;;11.36;57.06;98478.22;4913596;29;20239;-57
2023/03/19 04:58:05;;;;;;;6.83;1.77;;;;;;;11.42;55.96;98484.63;4914595;29;20241;-57
2023/03/19 05:00:35;;;;;;;4.93;1.87;;;;;;;11.52;55.40;98477.47;4909899;29;20233;-57
2023/03/19 05:03:01;;;;;;;2.30;1.43;;;;;;;11.56;55.16;98475.34;4924795;29;20240;-56
2023/03/19 05:05:30;;;;;;;3.33;1.33;;;;;;;11.63;53.88;98473.72;4910009;29;20239;-56
2023/03/19 05:07:58;;;;;;;2.53;1.67;;;;;;;11.67;53.59;98478.44;4916067;29;20231;-57
2023/03/19 05:10:25;;;;;;;2.33;1.53;;;;;;;11.75;53.86;98475.03;4907947;29;20239;-56
2023/03/19 05:12:53;;;;;;;3.53;1.70;;;;;;;11.74;52.63;98468.16;4912181;29;20775;-56
2023/03/19 05:15:22;;;;;;;4.20;1.70;;;;;;;11.77;53.48;98475.69;4914059;29;20231;-62
2023/03/19 05:18:00;;;;;;;4.17;2.00;;;;;;;11.72;53.00;98474.53;4902589;29;20322;-55
2023/03/19 05:20:38;;;;;;;3.20;1.67;;;;;;;11.62;54.59;98474.69;4914881;29;20352;-56
2023/03/19 05:23:16;;;;;;;3.67;1.80;;;;;;;11.63;53.49;98477.16;4909889;29;20243;-56
2023/03/19 05:25:49;;;;;;;3.90;1.80;;;;;;;11.71;52.99;98470.28;4925433;29;20240;-55
2023/03/19 05:28:22;;;;;;;5.33;2.00;;;;;;;11.79;52.26;98478.13;4916447;29;20230;-57
2023/03/19 05:30:50;;;;;;;3.77;2.00;;;;;;;11.78;52.20;98474.72;4912726;29;20247;-57
2023/03/19 05:33:22;;;;;;;4.30;2.10;;;;;;;11.78;52.66;98479.94;4916149;29;20341;-56
2023/03/19 05:35:50;;;;;;;3.27;1.70;;;;;;;11.81;52.70;98486.63;4929675;29;20235;-55
2023/03/19 05:38:23;;;;;;;4.80;2.13;;;;;;;11.78;52.94;98481.72;4912397;29;20230;-57
2023/03/19 05:41:04;;;;;;;4.80;2.00;;;;;;;11.76;53.74;98492.38;4911224;29;20648;-56
2023/03/19 05:43:40;;;;;;;4.17;1.90;;;;;;;11.78;53.49;98481.72;4923304;29;20901;-56
2023/03/19 05:46:13;;;;;;;4.23;2.00;;;;;;;11.74;54.48;98488.25;4915033;29;20723;-56
2023/03/19 05:48:41;;;;;;;5.00;1.70;;;;;;;11.64;54.40;98483.19;4911577;29;20236;-56
2023/03/19 05:51:08;;;;;;;4.73;2.00;;;;;;;11.58;53.83;98484.66;4911273;29;20243;-54
2023/03/19 05:53:41;;;;;;;19.23;9.67;;;;;;;11.64;53.29;98488.41;4913520;29;20248;-57
2023/03/19 05:56:27;;;;;;;12.03;6.03;;;;;;;11.61;54.32;98484.34;4915556;29;20245;-56
2023/03/19 05:59:07;;;;;;;6.27;3.53;;;;;;;11.64;53.74;98481.41;4913529;29;20241;-56
2023/03/19 06:01:38;;;;;;;6.77;2.47;;;;;;;11.63;54.07;98494.63;4912385;29;20339;-56
2023/03/19 06:04:05;;;;;;;3.03;2.00;;;;;;;11.64;53.55;98494.47;4915653;29;20601;-57
2023/03/19 06:06:32;;;;;;;7.33;2.23;;;;;;;11.70;53.21;98497.41;4912483;29;20229;-57
2023/03/19 06:08:58;;;;;;;4.17;1.70;;;;;;;11.66;55.44;98496.91;4920583;29;20228;-56
2023/03/19 06:11:33;;;;;;;5.17;1.80;;;;;;;11.63;55.10;98499.84;4908768;29;20710;-55
2023/03/19 06:14:18;;;;;;;6.00;1.97;;;;;;;11.65;53.92;98505.75;4914199;29;20613;-57
2023/03/19 06:17:04;;;;;;;8.37;2.47;;;;;;;11.72;54.25;98501.50;4912664;29;20675;-55
2023/03/19 06:19:30;;;;;;;5.43;2.00;;;;;;;11.78;53.92;98505.25;4909261;29;20236;-57
2023/03/19 06:21:57;;;;;;;3.10;1.90;;;;;;;11.76;54.96;98507.22;4931439;29;20242;-56
2023/03/19 06:24:24;;;;;;;2.63;1.67;;;;;;;11.76;54.99;98502.00;4932170;29;20237;-55
2023/03/19 06:26:51;;;;;;;6.50;2.27;;;;;;;11.73;55.57;98503.16;4927736;29;20269;-55
2023/03/19 06:29:18;;;;;;;4.40;3.83;;;;;;;11.72;55.81;98505.91;4913392;29;20236;-57
2023/03/19 06:31:48;;;;;;;5.43;2.80;;;;;;;11.69;55.43;98509.69;4926626;29;20245;-56
2023/03/19 06:34:24;;;;;;;3.23;2.27;;;;;;;11.63;55.65;98513.75;4929013;29;20844;-55
2023/03/19 06:36:52;;;;;;;5.70;4.70;;;;;;;11.63;56.03;98512.94;4910797;29;20324;-57
2023/03/19 06:39:19;;;;;;;4.80;3.77;;;;;;;11.58;56.81;98513.44;4916138;29;20233;-56
2023/03/19 06:41:45;;;;;;;5.70;4.33;;;;;;;11.58;56.15;98515.22;4911588;29;20235;-56
2023/03/19 06:44:24;;;;;;;3.83;1.80;;;;;;;11.61;56.27;98520.94;4926275;29;20323;-57
2023/03/19 06:46:51;;;;;;;7.40;6.63;;;;;;;11.63;54.96;98519.00;4914378;29;20316;-56
2023/03/19 06:49:18;;;;;;;6.03;4.10;;;;;;;11.73;54.49;98529.28;4913173;29;20243;-55
2023/03/19 06:51:46;;;;;;;4.37;2.83;;;;;;;11.79;54.67;98527.81;4909360;29;20231;-54
2023/03/19 06:54:12;;;;;;;5.03;2.60;;;;;;;11.84;54.88;98524.75;4931839;29;20247;-54
2023/03/19 06:56:39;;;;;;;3.53;2.23;;;;;;;11.89;53.58;98527.69;4913322;29;20591;-56
2023/03/19 06:59:06;;;;;;;5.40;2.20;;;;;;;11.93;54.71;98526.38;4915087;29;20225;-57
2023/03/19 07:01:32;;;;;;;5.13;2.20;;;;;;;11.99;53.59;98522.28;4913384;29;20263;-56
2023/03/19 07:03:59;;;;;;;3.93;2.13;;;;;;;12.01;54.18;98523.81;4919140;29;20737;-56
2023/03/19 07:06:25;;;;;;;4.87;2.93;;;;;;;12.10;52.65;98529.84;4913481;29;20225;-57
2023/03/19 07:08:53;;;;;;;10.70;9.43;;;;;;;12.19;53.48;98530.69;4909948;29;20695;-56
2023/03/19 07:11:20;;;;;;;10.67;6.70;;;;;;;12.26;53.39;98526.41;4914054;29;20275;-56
2023/03/19 07:13:46;;;;;;;5.57;2.80;;;;;;;12.40;52.47;98530.19;4910839;29;20232;-57
2023/03/19 07:16:13;;;;;;;5.33;3.07;;;;;;;12.47;52.79;98532.94;4898396;29;20297;-57
2023/03/19 07:18:40;;;;;;;4.83;2.30;;;;;;;12.55;53.31;98533.75;4905155;29;20241;-57
2023/03/19 07:21:06;;;;;;;4.00;2.30;;;;;;;12.63;53.65;98534.75;4916626;29;20241;-56
2023/03/19 07:23:33;;;;;;;6.27;2.00;;;;;;;12.72;53.54;98536.34;4912130;29;20613;-57
2023/03/19 07:26:01;;;;;;;5.30;2.30;;;;;;;12.85;53.02;98541.88;4914021;29;20239;-56
2023/03/19 07:28:27;;;;;;;8.23;2.77;;;;;;;12.97;54.14;98531.88;4912148;29;20296;-56
2023/03/19 07:30:55;;;;;;;4.10;1.80;;;;;;;13.16;52.90;98539.50;4909788;29;20592;-55
2023/03/19 07:33:22;;;;;;;3.70;1.80;;;;;;;13.20;53.75;98551.28;4928251;29;21231;-54
2023/03/19 07:35:48;;;;;;;6.73;2.13;;;;;;;13.29;52.00;98550.25;4928731;29;20598;-55
2023/03/19 07:38:15;;;;;;;4.80;2.30;;;;;;;13.42;52.25;98558.44;4929603;29;20267;-56
2023/03/19 07:40:42;;;;;;;5.43;2.00;;;;;;;13.55;52.69;98543.94;4931018;29;20242;-56
2023/03/19 07:43:10;;;;;;;5.37;1.93;;;;;;;13.70;51.90;98550.09;4935379;29;20244;-56
2023/03/19 07:45:36;;;;;;;4.00;2.10;;;;;;;13.62;51.34;98550.16;4930309;29;20233;-56
2023/03/19 07:48:03;;;;;;;5.53;2.13;;;;;;;13.68;50.84;98554.69;4934006;29;20766;-56
2023/03/19 07:50:31;;;;;;;2.47;1.80;;;;;;;13.70;50.95;98549.25;4930554;29;20248;-59
2023/03/19 07:52:58;;;;;;;3.80;2.00;;;;;;;13.64;50.39;98556.03;4932470;29;20245;-56
2023/03/19 07:55:25;;;;;;;3.07;2.13;;;;;;;13.81;50.75;98553.28;4934526;29;20648;-55
2023/03/19 07:57:52;;;;;;;5.23;2.20;;;;;;;13.86;50.67;98553.59;4923403;29;20735;-57
2023/03/19 08:00:21;;;;;;;3.73;2.00;;;;;;;13.82;51.23;98552.31;4930599;29;20228;-56
2023/03/19 08:02:48;;;;;;;4.53;2.22;;;;;;;13.88;51.03;98552.44;4927849;29;20935;-57
2023/03/19 08:05:15;;;;;;;7.83;2.23;;;;;;;13.98;50.42;98556.66;4931926;29;20233;-56
2023/03/19 08:07:41;;;;;;;5.00;2.53;;;;;;;14.09;50.23;98553.63;4928856;29;20240;-57
2023/03/19 08:10:09;;;;;;;6.03;2.10;;;;;;;14.11;50.32;98553.44;4932368;29;20246;-56
2023/03/19 08:12:39;;;;;;;4.67;2.50;;;;;;;13.84;51.07;98558.19;4931621;29;20255;-57
2023/03/19 08:15:08;;;;;;;4.53;2.17;;;;;;;13.73;51.89;98548.91;4935456;29;20241;-55
2023/03/19 08:17:37;;;;;;;6.80;2.20;;;;;;;13.77;51.02;98560.69;4929908;29;20743;-57
2023/03/19 08:20:07;;;;;;;4.93;1.87;;;;;;;13.91;51.56;98547.84;4929638;29;20752;-56
2023/03/19 08:22:34;;;;;;;9.43;2.40;;;;;;;13.96;51.99;98554.19;4911048;29;20263;-57
2023/03/19 08:25:01;;;;;;;6.67;2.17;;;;;;;13.91;52.01;98559.13;4934479;29;20279;-56
2023/03/19 08:27:29;;;;;;;3.83;2.30;;;;;;;14.00;51.29;98562.53;4930017;29;20304;-57
2023/03/19 08:29:56;;;;;;;3.53;2.00;;;;;;;13.95;51.80;98563.03;4930998;29;20241;-57
2023/03/19 08:32:23;;;;;;;5.33;2.10;;;;;;;13.96;52.40;98558.63;4930412;29;20341;-55
2023/03/19 08:34:52;;;;;;;5.20;2.30;;;;;;;14.19;51.68;98563.06;4930571;29;20249;-57
2023/03/19 08:37:19;;;;;;;5.73;2.30;;;;;;;14.18;51.30;98570.09;4930568;29;20561;-56
2023/03/19 08:39:46;;;;;;;5.67;2.37;;;;;;;14.45;50.14;98554.81;4934755;28;20597;-57
2023/03/19 08:42:12;;;;;;;4.63;2.20;;;;;;;14.58;50.44;98560.28;4936347;29;20243;-53
2023/03/19 08:44:39;;;;;;;3.87;1.90;;;;;;;14.85;50.04;98560.69;4897485;29;20688;-56
2023/03/19 08:47:06;;;;;;;4.33;2.10;;;;;;;15.02;48.99;98558.72;4935080;29;20317;-57
2023/03/19 08:49:33;;;;;;;5.07;2.33;;;;;;;15.18;48.71;98562.16;4935752;28;20767;-56
2023/03/19 08:52:04;;;;;;;7.20;2.13;;;;;;;15.40;47.33;98568.28;4930455;29;20683;-56
2023/03/19 08:54:30;;;;;;;4.37;1.97;;;;;;;15.46;47.65;98566.72;4935054;29;20604;-56
2023/03/19 08:56:57;;;;;;;4.13;2.13;;;;;;;15.41;47.83;98564.66;4934601;29;20241;-56
2023/03/19 08:59:23;;;;;;;5.07;2.53;;;;;;;15.48;47.08;98583.97;4934568;29;20716;-57
2023/03/19 09:01:51;;;;;;;4.20;2.10;;;;;;;15.45;48.36;98571.19;4933192;29;20295;-57
2023/03/19 09:04:18;;;;;;;2.97;1.93;;;;;;;15.12;47.95;98565.50;4932539;29;20261;-57
2023/03/19 09:06:45;;;;;;;7.03;2.57;;;;;;;14.93;48.80;98561.59;4934418;29;20239;-56
2023/03/19 09:09:13;;;;;;;6.83;2.13;;;;;;;14.68;49.26;98564.47;4938177;29;20244;-56
2023/03/19 09:11:39;;;;;;;4.47;1.93;;;;;;;14.58;49.77;98572.56;4933355;29;20251;-57
2023/03/19 09:14:06;;;;;;;3.83;2.07;;;;;;;14.50;50.18;98585.78;4937887;29;20244;-57
2023/03/19 09:16:33;;;;;;;3.03;1.80;;;;;;;14.40;51.30;98578.16;4933329;29;20299;-57
2023/03/19 09:18:59;;;;;;;6.63;2.30;;;;;;;14.48;51.81;98593.84;4937918;29;20247;-58
2023/03/19 09:21:26;;;;;;;4.80;2.33;;;;;;;14.63;49.87;98577.31;4916706;29;20594;-57
2023/03/19 09:23:52;;;;;;;4.87;2.43;;;;;;;14.66;51.20;98582.22;4937210;29;20307;-56
2023/03/19 09:26:20;;;;;;;6.37;2.77;;;;;;;14.61;50.42;98578.31;4933994;29;20237;-55
2023/03/19 09:28:47;;;;;;;4.33;2.10;;;;;;;14.74;50.25;98579.53;4930492;29;20251;-57
2023/03/19 09:31:14;;;;;;;6.07;2.80;;;;;;;14.72;50.97;98566.56;4932818;29;20304;-58
2023/03/19 09:33:40;;;;;;;9.77;3.30;;;;;;;14.84;50.79;98568.75;4928964;29;20249;-58
2023/03/19 09:36:08;;;;;;;6.27;2.73;;;;;;;15.04;50.01;98571.66;4933257;29;20253;-58
2023/03/19 09:38:34;;;;;;;4.50;2.00;;;;;;;15.05;50.54;98573.28;4929693;29;20375;-55
2023/03/19 09:41:12;;;;;;;5.13;2.10;;;;;;;15.12;49.94;98562.88;4935556;29;20560;-57
2023/03/19 09:43:55;;;;;;;5.17;2.60;;;;;;;15.23;49.13;98565.06;4912440;29;20254;-57
2023/03/19 09:46:26;;;;;;;4.33;2.03;;;;;;;15.35;49.70;98578.53;4929356;29;20649;-57
2023/03/19 09:48:58;;;;;;;3.33;1.93;;;;;;;15.57;49.92;98582.03;4935025;29;20234;-57
2023/03/19 09:51:30;;;;;;;3.87;2.20;;;;;;;15.68;47.61;98579.94;4936006;28;20237;-57
2023/03/19 09:54:00;;;;;;;3.53;2.10;;;;;;;15.45;49.74;98592.22;4932361;29;20241;-55
2023/03/19 09:56:27;;;;;;;4.97;2.07;;;;;;;15.34;49.06;98587.44;4933387;29;20242;-56
2023/03/19 09:58:55;;;;;;;4.50;2.20;;;;;;;15.41;50.52;98596.22;4933121;29;20238;-56
2023/03/19 10:01:28;;;;;;;9.40;1.70;;;;;;;15.90;48.54;98594.78;4935032;29;20341;-57
2023/03/19 10:04:37;;;;;;;5.93;2.10;;;;;;;15.90;46.72;98571.09;4933744;29;20320;-58
2023/03/19 10:07:14;;;;;;;5.57;2.00;;;;;;;15.62;49.11;98581.50;4930742;29;20246;-56
2023/03/19 10:09:53;;;;;;;4.50;2.07;;;;;;;15.79;49.41;98576.81;4933664;29;20685;-53
2023/03/19 10:12:32;;;;;;;6.07;1.70;;;;;;;15.90;48.85;98588.72;4932401;29;20240;-55
2023/03/19 10:15:18;;;;;;;5.53;1.83;;;;;;;16.25;47.54;98585.41;4929975;29;20669;-56
2023/03/19 10:17:54;;;;;;;4.00;1.87;;;;;;;16.22;47.05;98587.44;4933208;29;20242;-58
2023/03/19 10:20:31;;;;;;;5.27;1.90;;;;;;;16.16;47.27;98589.97;4934242;29;20682;-56
2023/03/19 10:23:03;;;;;;;6.10;2.47;;;;;;;16.12;48.65;98594.00;4932418;29;20254;-57
2023/03/19 10:25:32;;;;;;;4.47;2.00;;;;;;;16.23;50.04;98599.59;4930351;29;20239;-57
2023/03/19 10:28:07;;;;;;;8.83;1.90;;;;;;;15.93;50.22;98590.97;4932914;29;20310;-55
2023/03/19 10:30:36;;;;;;;8.57;2.70;;;;;;;16.02;51.48;98589.03;4931635;29;20223;-57
2023/03/19 10:33:15;;;;;;;3.93;2.30;;;;;;;16.57;50.95;98586.69;4934951;29;20286;-56
2023/03/19 10:35:45;;;;;;;4.27;2.17;;;;;;;16.63;49.13;98591.22;4933541;29;20594;-56
2023/03/19 10:38:21;;;;;;;5.17;2.17;;;;;;;16.48;49.05;98601.00;4933806;29;20271;-57
2023/03/19 10:41:00;;;;;;;6.13;2.53;;;;;;;16.23;50.90;98591.69;4932437;29;23275;-56
2023/03/19 10:43:27;;;;;;;8.87;2.47;;;;;;;16.33;51.02;98599.25;4932322;29;20245;-56
2023/03/19 10:45:57;;;;;;;11.43;2.53;;;;;;;16.30;50.42;98593.56;4946882;23;20240;-58
2023/03/19 10:48:26;;;;;;;5.30;2.60;;;;;;;16.18;51.28;98601.16;4929427;28;20273;-60
2023/03/19 10:50:56;;;;;;;5.80;2.50;;;;;;;16.28;50.81;98593.75;4944092;28;20245;-58
2023/03/19 10:53:31;;;;;;;7.80;2.30;;;;;;;16.34;51.06;98595.63;4946827;28;20776;-58
2023/03/19 10:56:02;;;;;;;12.43;3.83;;;;;;;16.40;51.85;98593.25;4946424;28;20321;-58
2023/03/19 10:58:30;;;;;;;4.87;2.10;;;;;;;16.58;51.65;98598.03;4944617;28;20322;-58
2023/03/19 11:01:04;;;;;;;4.77;1.90;;;;;;;16.84;51.85;98600.09;4948523;28;20283;-58
2023/03/19 11:03:33;;;;;;;4.37;2.20;;;;;;;16.62;52.02;98599.28;4943583;28;20285;-58
2023/03/19 11:06:17;;;;;;;3.90;2.30;;;;;;;16.33;52.27;98601.09;4946849;28;20599;-58
2023/03/19 11:08:50;;;;;;;3.13;1.63;;;;;;;16.74;51.49;98604.88;4944202;28;20234;-58
2023/03/19 11:11:25;;;;;;;5.17;1.80;;;;;;;16.72;51.33;98605.06;4948233;28;20587;-58
2023/03/19 11:13:52;;;;;;;5.93;1.70;;;;;;;16.68;51.37;98603.81;4946151;28;20270;-58
2023/03/19 11:16:20;;;;;;;5.23;1.90;;;;;;;16.42;52.66;98592.06;4946952;28;20230;-58
2023/03/19 11:18:48;;;;;;;6.80;1.80;;;;;;;16.52;51.53;98608.34;4943479;28;20243;-58
2023/03/19 11:21:24;;;;;;;4.53;2.00;;;;;;;16.11;52.50;98610.78;4946585;28;20301;-58
2023/03/19 11:23:53;;;;;;;3.47;1.80;;;;;;;15.59;55.11;98603.72;4926205;29;20695;-58
2023/03/19 11:26:20;;;;;;;6.70;2.30;;;;;;;16.04;53.42;98621.28;4946691;28;20285;-58
2023/03/19 11:28:53;;;;;;;7.23;2.30;;;;;;;15.59;54.20;98606.34;4944750;28;20233;-57
2023/03/19 11:31:27;;;;;;;5.77;2.33;;;;;;;15.52;55.10;98613.34;4947718;28;20309;-58
2023/03/19 11:34:08;;;;;;;4.63;2.20;;;;;;;15.95;54.30;98602.13;4946438;28;20373;-58
2023/03/19 11:36:43;;;;;;;3.53;1.80;;;;;;;15.87;55.45;98610.97;4944019;28;20239;-57
2023/03/19 11:39:18;;;;;;;4.87;2.33;;;;;;;16.17;53.16;98608.25;4947641;28;20234;-57
2023/03/19 11:42:09;;;;;;;6.63;2.10;;;;;;;15.77;54.78;98605.97;4945262;28;20234;-57
2023/03/19 11:44:46;;;;;;;4.87;1.90;;;;;;;16.04;53.52;98606.28;4941810;28;20694;-55
2023/03/19 11:47:24;;;;;;;6.37;2.30;;;;;;;16.08;54.77;98604.09;4946899;28;20230;-57
2023/03/19 11:50:07;;;;;;;2.93;1.50;;;;;;;16.34;54.51;98623.81;4944455;28;20778;-58